createdAt,value
2023-04-20T00:00:28.704Z,8.61
2023-04-20T00:01:28.748Z,8.58
2023-04-20T00:02:28.960Z,8.58
2023-04-20T00:03:29.041Z,8.53
2023-04-20T00:04:28.803Z,8.42
2023-04-20T00:05:28.931Z,8.43
2023-04-20T00:06:28.853Z,8.34
2023-04-20T00:07:28.878Z,8.36
2023-04-20T00:08:28.902Z,8.34
2023-04-20T00:09:28.938Z,8.40
2023-04-20T00:10:28.959Z,8.34
2023-04-20T00:11:28.977Z,8.28
2023-04-20T00:12:29.002Z,8.32
2023-04-20T00:13:29.033Z,8.35
2023-04-20T00:14:29.066Z,8.32
2023-04-20T00:15:29.074Z,8.28
2023-04-20T00:16:29.116Z,8.40
2023-04-20T00:17:29.171Z,8.31
2023-04-20T00:18:29.152Z,8.36
2023-04-20T00:19:29.175Z,8.46
2023-04-20T00:20:29.201Z,8.53
2023-04-20T00:21:29.228Z,8.47
2023-04-20T00:22:29.254Z,8.60
2023-04-20T00:23:29.278Z,8.50
2023-04-20T00:24:29.299Z,8.61
2023-04-20T00:25:29.325Z,8.52
2023-04-20T00:26:29.350Z,8.52
2023-04-20T00:27:29.377Z,8.47
2023-04-20T00:28:29.399Z,8.50
2023-04-20T00:29:29.429Z,8.47
2023-04-20T00:30:29.451Z,8.47
2023-04-20T00:31:29.596Z,8.60
2023-04-20T00:32:29.730Z,8.61
2023-04-20T00:33:29.540Z,8.60
2023-04-20T00:34:29.549Z,8.64
2023-04-20T00:35:29.582Z,8.62
2023-04-20T00:36:29.595Z,8.60
2023-04-20T00:37:29.623Z,8.67
2023-04-20T00:38:29.646Z,8.67
2023-04-20T00:39:29.673Z,8.61
2023-04-20T00:40:32.516Z,8.54
2023-04-20T00:41:29.718Z,8.58
2023-04-20T00:42:29.747Z,8.67
2023-04-20T00:43:29.775Z,8.65
2023-04-20T00:44:29.791Z,8.61
2023-04-20T00:45:29.818Z,8.61
2023-04-20T00:46:29.863Z,8.62
2023-04-20T00:47:29.908Z,8.68
2023-04-20T00:48:29.893Z,8.62
2023-04-20T00:49:30.140Z,8.64
2023-04-20T00:50:29.942Z,8.71
2023-04-20T00:51:29.966Z,8.79
2023-04-20T00:52:29.989Z,8.69
2023-04-20T00:53:30.022Z,8.76
2023-04-20T00:54:30.055Z,8.80
2023-04-20T00:55:30.065Z,8.77
2023-04-20T00:56:30.094Z,8.72
2023-04-20T00:57:30.118Z,8.68
2023-04-20T00:58:30.145Z,8.61
2023-04-20T00:59:30.164Z,8.61
2023-04-20T01:00:30.191Z,8.71
2023-04-20T01:01:30.293Z,8.71
2023-04-20T01:02:30.350Z,8.68
2023-04-20T01:03:30.387Z,8.67
2023-04-20T01:04:30.433Z,8.79
2023-04-20T01:05:30.340Z,8.72
2023-04-20T01:06:30.355Z,8.71
2023-04-20T01:07:30.366Z,8.74
2023-04-20T01:08:30.391Z,8.69
2023-04-20T01:09:30.421Z,8.74
2023-04-20T01:10:30.443Z,8.82
2023-04-20T01:11:30.472Z,8.79
2023-04-20T01:12:30.490Z,8.69
2023-04-20T01:13:30.515Z,8.67
2023-04-20T01:14:30.542Z,8.69
2023-04-20T01:15:30.575Z,8.69
2023-04-20T01:16:30.712Z,8.79
2023-04-20T01:17:30.630Z,8.69
2023-04-20T01:18:30.642Z,8.79
2023-04-20T01:19:30.667Z,8.76
2023-04-20T01:20:30.694Z,8.79
2023-04-20T01:21:30.736Z,8.86
2023-04-20T01:22:30.744Z,8.79
2023-04-20T01:23:30.768Z,8.80
2023-04-20T01:24:30.807Z,8.83
2023-04-20T01:25:30.815Z,8.80
2023-04-20T01:26:30.841Z,8.79
2023-04-20T01:27:30.873Z,8.79
2023-04-20T01:28:30.891Z,8.82
2023-04-20T01:29:30.926Z,8.72
2023-04-20T01:30:30.938Z,8.85
2023-04-20T01:31:30.998Z,8.80
2023-04-20T01:32:31.032Z,8.65
2023-04-20T01:33:31.018Z,8.74
2023-04-20T01:34:31.044Z,8.58
2023-04-20T01:35:31.082Z,8.67
2023-04-20T01:36:31.092Z,8.64
2023-04-20T01:37:31.144Z,8.71
2023-04-20T01:38:31.142Z,8.65
2023-04-20T01:39:31.199Z,8.67
2023-04-20T01:40:31.190Z,8.69
2023-04-20T01:41:31.224Z,8.69
2023-04-20T01:42:31.244Z,8.64
2023-04-20T01:43:31.269Z,8.60
2023-04-20T01:44:31.292Z,8.64
2023-04-20T01:45:31.339Z,8.60
2023-04-20T01:46:31.371Z,8.64
2023-04-20T01:47:31.433Z,8.64
2023-04-20T01:48:31.392Z,8.67
2023-04-20T01:49:31.425Z,8.67
2023-04-20T01:50:31.456Z,8.71
2023-04-20T01:51:31.470Z,8.62
2023-04-20T01:52:31.493Z,8.64
2023-04-20T01:53:31.543Z,8.62
2023-04-20T01:54:31.545Z,8.68
2023-04-20T01:55:31.568Z,8.62
2023-04-20T01:56:31.599Z,8.61
2023-04-20T01:57:31.626Z,8.67
2023-04-20T01:58:31.675Z,8.79
2023-04-20T01:59:31.686Z,8.62
2023-04-20T02:00:31.787Z,8.61
2023-04-20T02:01:31.720Z,8.64
2023-04-20T02:02:31.871Z,8.76
2023-04-20T02:03:31.965Z,8.76
2023-04-20T02:04:31.796Z,8.72
2023-04-20T02:05:31.820Z,8.67
2023-04-20T02:06:31.847Z,8.72
2023-04-20T02:07:31.895Z,8.74
2023-04-20T02:08:31.892Z,8.71
2023-04-20T02:09:31.988Z,8.83
2023-04-20T02:10:31.947Z,8.77
2023-04-20T02:11:31.978Z,8.71
2023-04-20T02:12:31.995Z,8.79
2023-04-20T02:13:32.022Z,8.71
2023-04-20T02:14:32.044Z,8.69
2023-04-20T02:15:32.084Z,8.77
2023-04-20T02:16:32.109Z,8.77
2023-04-20T02:17:32.146Z,8.77
2023-04-20T02:18:32.146Z,8.76
2023-04-20T02:19:32.171Z,8.69
2023-04-20T02:20:32.201Z,8.68
2023-04-20T02:21:32.230Z,8.71
2023-04-20T02:22:32.243Z,8.72
2023-04-20T02:23:32.266Z,8.76
2023-04-20T02:24:32.293Z,8.79
2023-04-20T02:25:32.351Z,8.79
2023-04-20T02:26:32.344Z,8.68
2023-04-20T02:27:32.371Z,8.79
2023-04-20T02:28:32.393Z,8.82
2023-04-20T02:29:32.423Z,8.64
2023-04-20T02:30:32.444Z,8.79
2023-04-20T02:31:32.521Z,8.80
2023-04-20T02:32:32.510Z,8.79
2023-04-20T02:33:32.523Z,8.65
2023-04-20T02:34:32.550Z,8.60
2023-04-20T02:35:32.568Z,8.64
2023-04-20T02:36:32.591Z,8.60
2023-04-20T02:37:32.627Z,8.67
2023-04-20T02:38:32.642Z,8.64
2023-04-20T02:39:32.668Z,8.72
2023-04-20T02:40:32.694Z,8.65
2023-04-20T02:41:32.739Z,8.71
2023-04-20T02:42:32.748Z,8.74
2023-04-20T02:43:32.768Z,8.68
2023-04-20T02:44:32.795Z,8.82
2023-04-20T02:45:32.827Z,8.79
2023-04-20T02:46:32.915Z,8.80
2023-04-20T02:47:32.901Z,8.80
2023-04-20T02:48:32.897Z,8.71
2023-04-20T02:49:32.924Z,8.74
2023-04-20T02:50:32.946Z,8.76
2023-04-20T02:51:32.975Z,8.71
2023-04-20T02:52:32.998Z,8.65
2023-04-20T02:53:33.019Z,8.62
2023-04-20T02:54:33.062Z,8.71
2023-04-20T02:55:33.079Z,8.65
2023-04-20T02:56:33.104Z,8.69
2023-04-20T02:57:33.200Z,8.71
2023-04-20T02:58:33.156Z,8.71
2023-04-20T02:59:33.176Z,8.62
2023-04-20T03:00:33.202Z,8.62
2023-04-20T03:01:33.257Z,8.69
2023-04-20T03:02:33.382Z,8.64
2023-04-20T03:03:33.486Z,8.64
2023-04-20T03:04:33.444Z,8.67
2023-04-20T03:05:33.328Z,8.69
2023-04-20T03:06:33.356Z,8.77
2023-04-20T03:07:33.383Z,8.64
2023-04-20T03:08:33.409Z,8.62
2023-04-20T03:09:33.427Z,8.76
2023-04-20T03:10:33.460Z,8.69
2023-04-20T03:11:33.477Z,8.74
2023-04-20T03:12:33.504Z,8.68
2023-04-20T03:13:33.611Z,8.67
2023-04-20T03:14:33.564Z,8.65
2023-04-20T03:15:33.592Z,8.65
2023-04-20T03:16:33.695Z,8.71
2023-04-20T03:17:33.696Z,8.67
2023-04-20T03:18:33.657Z,8.65
2023-04-20T03:19:33.677Z,8.68
2023-04-20T03:20:33.719Z,8.69
2023-04-20T03:21:33.740Z,8.62
2023-04-20T03:22:33.768Z,8.68
2023-04-20T03:23:33.778Z,8.67
2023-04-20T03:24:33.806Z,8.69
2023-04-20T03:25:33.826Z,8.65
2023-04-20T03:26:33.852Z,8.65
2023-04-20T03:27:33.877Z,8.67
2023-04-20T03:28:33.912Z,8.64
2023-04-20T03:29:33.945Z,8.69
2023-04-20T03:30:33.954Z,8.71
2023-04-20T03:31:34.026Z,8.68
2023-04-20T03:32:34.031Z,8.61
2023-04-20T03:33:34.028Z,8.67
2023-04-20T03:34:34.058Z,8.60
2023-04-20T03:35:34.083Z,8.58
2023-04-20T03:36:34.110Z,8.67
2023-04-20T03:37:34.127Z,8.67
2023-04-20T03:38:34.162Z,8.61
2023-04-20T03:39:34.180Z,8.67
2023-04-20T03:40:34.203Z,8.62
2023-04-20T03:41:34.248Z,8.64
2023-04-20T03:42:34.256Z,8.60
2023-04-20T03:43:34.279Z,8.64
2023-04-20T03:44:34.321Z,8.57
2023-04-20T03:45:34.440Z,8.50
2023-04-20T03:46:34.354Z,8.52
2023-04-20T03:47:34.391Z,8.46
2023-04-20T03:48:34.407Z,8.46
2023-04-20T03:49:34.439Z,8.44
2023-04-20T03:50:34.464Z,8.47
2023-04-20T03:51:34.476Z,8.46
2023-04-20T03:52:34.526Z,8.40
2023-04-20T03:53:34.527Z,8.44
2023-04-20T03:54:34.560Z,8.44
2023-04-20T03:55:34.578Z,8.42
2023-04-20T03:56:34.629Z,8.54
2023-04-20T03:57:34.645Z,8.47
2023-04-20T03:58:34.664Z,8.50
2023-04-20T03:59:34.695Z,8.49
2023-04-20T04:00:34.704Z,8.52
2023-04-20T04:01:34.765Z,8.44
2023-04-20T04:02:37.561Z,8.46
2023-04-20T04:03:35.046Z,8.57
2023-04-20T04:04:34.910Z,8.47
2023-04-20T04:05:34.893Z,8.53
2023-04-20T04:06:34.901Z,8.50
2023-04-20T04:07:34.885Z,8.50
2023-04-20T04:08:34.905Z,8.54
2023-04-20T04:09:34.936Z,8.50
2023-04-20T04:10:34.978Z,8.49
2023-04-20T04:11:34.976Z,8.47
2023-04-20T04:12:35.006Z,8.52
2023-04-20T04:13:35.037Z,8.53
2023-04-20T04:14:35.059Z,8.52
2023-04-20T04:15:35.081Z,8.54
2023-04-20T04:16:35.124Z,8.50
2023-04-20T04:17:35.175Z,8.53
2023-04-20T04:18:35.207Z,8.53
2023-04-20T04:19:35.187Z,8.44
2023-04-20T04:20:35.205Z,8.44
2023-04-20T04:21:35.231Z,8.49
2023-04-20T04:22:35.260Z,8.49
2023-04-20T04:23:35.282Z,8.44
2023-04-20T04:24:35.308Z,8.49
2023-04-20T04:25:35.345Z,8.46
2023-04-20T04:26:35.361Z,8.44
2023-04-20T04:27:35.427Z,8.46
2023-04-20T04:28:35.415Z,8.46
2023-04-20T04:29:35.435Z,8.43
2023-04-20T04:30:35.459Z,8.49
2023-04-20T04:31:35.537Z,8.46
2023-04-20T04:32:35.532Z,8.44
2023-04-20T04:33:35.691Z,8.46
2023-04-20T04:34:35.562Z,8.49
2023-04-20T04:35:35.636Z,8.49
2023-04-20T04:36:35.613Z,8.49
2023-04-20T04:37:35.637Z,8.49
2023-04-20T04:38:35.660Z,8.54
2023-04-20T04:39:35.684Z,8.46
2023-04-20T04:40:35.712Z,8.53
2023-04-20T04:41:35.734Z,8.52
2023-04-20T04:42:35.761Z,8.52
2023-04-20T04:43:35.793Z,8.52
2023-04-20T04:44:35.818Z,8.46
2023-04-20T04:45:35.833Z,8.49
2023-04-20T04:46:35.953Z,8.53
2023-04-20T04:47:36.034Z,8.53
2023-04-20T04:48:35.911Z,8.49
2023-04-20T04:49:35.956Z,8.53
2023-04-20T04:50:35.967Z,8.49
2023-04-20T04:51:35.986Z,8.50
2023-04-20T04:52:36.017Z,8.53
2023-04-20T04:53:36.039Z,8.54
2023-04-20T04:54:36.062Z,8.54
2023-04-20T04:55:36.087Z,8.53
2023-04-20T04:56:36.120Z,8.58
2023-04-20T04:57:36.152Z,8.62
2023-04-20T04:58:36.172Z,8.58
2023-04-20T04:59:36.212Z,8.52
2023-04-20T05:00:36.211Z,8.47
2023-04-20T05:01:36.294Z,8.50
2023-04-20T05:02:36.620Z,8.52
2023-04-20T05:03:36.457Z,8.46
2023-04-20T05:04:36.418Z,8.49
2023-04-20T05:05:36.364Z,8.39
2023-04-20T05:06:36.367Z,8.42
2023-04-20T05:07:36.394Z,8.42
2023-04-20T05:08:36.420Z,8.44
2023-04-20T05:09:36.433Z,8.42
2023-04-20T05:10:36.468Z,8.53
2023-04-20T05:11:36.490Z,8.50
2023-04-20T05:12:36.523Z,8.50
2023-04-20T05:13:36.536Z,8.50
2023-04-20T05:14:36.564Z,8.62
2023-04-20T05:15:36.586Z,8.57
2023-04-20T05:16:36.649Z,8.64
2023-04-20T05:17:36.677Z,8.64
2023-04-20T05:18:36.666Z,8.68
2023-04-20T05:19:36.708Z,8.64
2023-04-20T05:20:36.716Z,8.64
2023-04-20T05:21:36.852Z,8.52
2023-04-20T05:22:36.765Z,8.60
2023-04-20T05:23:36.792Z,8.62
2023-04-20T05:24:36.811Z,8.60
2023-04-20T05:25:36.839Z,8.52
2023-04-20T05:26:36.876Z,8.49
2023-04-20T05:27:36.896Z,8.49
2023-04-20T05:28:36.918Z,8.50
2023-04-20T05:29:36.935Z,8.49
2023-04-20T05:30:36.963Z,8.43
2023-04-20T05:31:37.065Z,8.46
2023-04-20T05:32:37.047Z,8.44
2023-04-20T05:33:37.036Z,8.46
2023-04-20T05:34:37.064Z,8.42
2023-04-20T05:35:37.084Z,8.46
2023-04-20T05:36:37.115Z,8.50
2023-04-20T05:37:37.158Z,8.47
2023-04-20T05:38:37.165Z,8.44
2023-04-20T05:39:37.186Z,8.54
2023-04-20T05:40:37.221Z,8.57
2023-04-20T05:41:37.233Z,8.57
2023-04-20T05:42:37.279Z,8.46
2023-04-20T05:43:37.286Z,8.54
2023-04-20T05:44:37.311Z,8.54
2023-04-20T05:45:37.386Z,8.50
2023-04-20T05:46:37.367Z,8.53
2023-04-20T05:47:37.432Z,8.53
2023-04-20T05:48:37.416Z,8.53
2023-04-20T05:49:37.442Z,8.50
2023-04-20T05:50:37.468Z,8.52
2023-04-20T05:51:37.492Z,8.49
2023-04-20T05:52:37.515Z,8.44
2023-04-20T05:53:37.582Z,8.53
2023-04-20T05:54:37.572Z,8.44
2023-04-20T05:55:37.588Z,8.52
2023-04-20T05:56:37.634Z,8.50
2023-04-20T05:57:37.640Z,8.44
2023-04-20T05:58:37.691Z,8.44
2023-04-20T05:59:37.693Z,8.43
2023-04-20T06:00:37.715Z,8.43
2023-04-20T06:01:37.744Z,8.49
2023-04-20T06:02:37.910Z,8.42
2023-04-20T06:03:37.938Z,8.43
2023-04-20T06:04:38.098Z,8.40
2023-04-20T06:05:38.008Z,8.36
2023-04-20T06:06:37.867Z,8.25
2023-04-20T06:07:37.889Z,8.32
2023-04-20T06:08:37.921Z,8.36
2023-04-20T06:09:38.014Z,8.26
2023-04-20T06:10:37.979Z,8.32
2023-04-20T06:11:37.989Z,8.32
2023-04-20T06:12:38.032Z,8.25
2023-04-20T06:13:38.044Z,8.25
2023-04-20T06:14:38.080Z,8.22
2023-04-20T06:15:38.114Z,8.21
2023-04-20T06:16:38.117Z,8.24
2023-04-20T06:17:38.166Z,8.22
2023-04-20T06:18:38.175Z,8.17
2023-04-20T06:19:38.202Z,8.13
2023-04-20T06:20:38.219Z,7.99
2023-04-20T06:21:38.238Z,7.96
2023-04-20T06:22:38.263Z,7.99
2023-04-20T06:23:38.285Z,8.03
2023-04-20T06:24:38.326Z,7.96
2023-04-20T06:25:38.367Z,8.01
2023-04-20T06:26:38.362Z,7.96
2023-04-20T06:27:38.391Z,7.80
2023-04-20T06:28:38.411Z,7.88
2023-04-20T06:29:38.465Z,7.77
2023-04-20T06:30:38.487Z,7.77
2023-04-20T06:31:38.516Z,7.78
2023-04-20T06:32:38.553Z,7.78
2023-04-20T06:33:38.574Z,7.78
2023-04-20T06:34:38.610Z,7.77
2023-04-20T06:35:38.579Z,7.71
2023-04-20T06:36:38.609Z,7.70
2023-04-20T06:37:38.632Z,7.74
2023-04-20T06:38:38.666Z,7.68
2023-04-20T06:39:38.681Z,7.73
2023-04-20T06:40:38.705Z,7.61
2023-04-20T06:41:38.776Z,7.61
2023-04-20T06:42:38.760Z,7.52
2023-04-20T06:43:38.782Z,7.48
2023-04-20T06:44:38.809Z,7.47
2023-04-20T06:45:38.826Z,7.45
2023-04-20T06:46:38.893Z,7.45
2023-04-20T06:47:38.962Z,7.56
2023-04-20T06:48:38.916Z,7.47
2023-04-20T06:49:38.928Z,7.41
2023-04-20T06:50:38.968Z,7.41
2023-04-20T06:51:38.973Z,7.29
2023-04-20T06:52:39.010Z,7.31
2023-04-20T06:53:39.028Z,7.37
2023-04-20T06:54:39.052Z,7.44
2023-04-20T06:55:39.072Z,7.41
2023-04-20T06:56:39.098Z,7.45
2023-04-20T06:57:39.175Z,7.49
2023-04-20T06:58:39.211Z,7.58
2023-04-20T06:59:39.177Z,7.61
2023-04-20T07:00:39.198Z,7.70
2023-04-20T07:01:39.274Z,7.63
2023-04-20T07:02:39.331Z,7.70
2023-04-20T07:03:39.449Z,7.73
2023-04-20T07:04:39.324Z,7.68
2023-04-20T07:05:39.316Z,7.67
2023-04-20T07:06:39.378Z,7.73
2023-04-20T07:07:39.368Z,7.68
2023-04-20T07:08:39.396Z,7.77
2023-04-20T07:09:39.419Z,7.80
2023-04-20T07:10:39.444Z,7.78
2023-04-20T07:11:39.474Z,7.78
2023-04-20T07:12:41.515Z,7.71
2023-04-20T07:13:39.554Z,7.75
2023-04-20T07:14:39.543Z,7.92
2023-04-20T07:15:39.570Z,7.83
2023-04-20T07:16:39.641Z,7.96
2023-04-20T07:17:39.680Z,8.10
2023-04-20T07:18:39.649Z,8.13
2023-04-20T07:19:39.669Z,8.09
2023-04-20T07:20:39.690Z,8.11
2023-04-20T07:21:39.715Z,8.09
2023-04-20T07:22:39.753Z,8.25
2023-04-20T07:23:39.766Z,8.43
2023-04-20T07:24:39.796Z,8.61
2023-04-20T07:25:39.820Z,8.60
2023-04-20T07:26:39.879Z,8.62
2023-04-20T07:27:39.866Z,8.80
2023-04-20T07:28:39.891Z,8.60
2023-04-20T07:29:39.938Z,8.68
2023-04-20T07:30:39.945Z,8.69
2023-04-20T07:31:40.023Z,8.68
2023-04-20T07:32:40.128Z,8.65
2023-04-20T07:33:40.035Z,8.67
2023-04-20T07:34:40.038Z,8.68
2023-04-20T07:35:40.068Z,8.82
2023-04-20T07:36:40.146Z,8.69
2023-04-20T07:37:40.707Z,8.67
2023-04-20T07:38:40.145Z,8.52
2023-04-20T07:39:40.176Z,8.49
2023-04-20T07:40:40.204Z,8.47
2023-04-20T07:41:40.225Z,8.49
2023-04-20T07:42:40.253Z,8.49
2023-04-20T07:43:40.438Z,8.35
2023-04-20T07:44:40.303Z,8.25
2023-04-20T07:45:40.408Z,8.28
2023-04-20T07:46:40.348Z,8.36
2023-04-20T07:47:40.395Z,8.46
2023-04-20T07:48:40.509Z,8.39
2023-04-20T07:49:40.429Z,8.40
2023-04-20T07:50:40.455Z,8.25
2023-04-20T07:51:40.480Z,8.21
2023-04-20T07:52:40.510Z,8.25
2023-04-20T07:53:40.527Z,8.21
2023-04-20T07:54:40.548Z,8.21
2023-04-20T07:55:40.577Z,8.17
2023-04-20T07:56:40.602Z,8.25
2023-04-20T07:57:40.631Z,8.34
2023-04-20T07:58:40.673Z,8.47
2023-04-20T07:59:40.955Z,8.58
2023-04-20T08:00:40.704Z,8.68
2023-04-20T08:01:40.918Z,8.60
2023-04-20T08:02:41.006Z,8.65
2023-04-20T08:03:40.931Z,8.82
2023-04-20T08:04:41.260Z,8.79
2023-04-20T08:05:40.902Z,8.79
2023-04-20T08:06:40.854Z,8.89
2023-04-20T08:07:40.905Z,8.87
2023-04-20T08:08:40.905Z,8.82
2023-04-20T08:09:40.944Z,8.82
2023-04-20T08:10:40.957Z,8.74
2023-04-20T08:11:40.985Z,8.80
2023-04-20T08:12:41.019Z,8.67
2023-04-20T08:13:41.035Z,8.65
2023-04-20T08:14:41.063Z,8.72
2023-04-20T08:15:41.106Z,8.72
2023-04-20T08:16:41.214Z,8.76
2023-04-20T08:17:41.201Z,8.71
2023-04-20T08:18:41.159Z,8.68
2023-04-20T08:19:43.703Z,8.79
2023-04-20T08:20:41.217Z,8.58
2023-04-20T08:21:41.267Z,8.53
2023-04-20T08:22:41.284Z,8.47
2023-04-20T08:23:41.286Z,8.50
2023-04-20T08:24:41.309Z,8.53
2023-04-20T08:25:41.345Z,8.58
2023-04-20T08:26:41.360Z,8.69
2023-04-20T08:27:41.386Z,8.67
2023-04-20T08:28:41.411Z,8.58
2023-04-20T08:29:41.442Z,8.54
2023-04-20T08:30:41.459Z,8.61
2023-04-20T08:31:41.546Z,8.67
2023-04-20T08:32:41.579Z,8.80
2023-04-20T08:33:41.749Z,8.77
2023-04-20T08:34:41.575Z,8.79
2023-04-20T08:35:41.604Z,8.79
2023-04-20T08:36:41.624Z,8.80
2023-04-20T08:37:41.653Z,8.80
2023-04-20T08:38:41.664Z,8.98
2023-04-20T08:39:41.692Z,9.08
2023-04-20T08:40:41.716Z,8.98
2023-04-20T08:41:41.756Z,8.98
2023-04-20T08:42:41.768Z,8.95
2023-04-20T08:43:41.793Z,9.05
2023-04-20T08:44:41.820Z,9.08
2023-04-20T08:45:41.846Z,9.05
2023-04-20T08:46:41.922Z,9.05
2023-04-20T08:47:41.915Z,9.14
2023-04-20T08:48:41.924Z,9.37
2023-04-20T08:49:42.100Z,9.50
2023-04-20T08:50:41.970Z,9.52
2023-04-20T08:51:41.999Z,9.55
2023-04-20T08:52:42.026Z,9.60
2023-04-20T08:53:42.057Z,9.78
2023-04-20T08:54:55.171Z,9.74
2023-04-20T08:55:42.100Z,9.84
2023-04-20T08:56:42.123Z,9.84
2023-04-20T08:57:42.156Z,9.70
2023-04-20T08:58:42.180Z,9.71
2023-04-20T08:59:42.204Z,9.60
2023-04-20T09:00:42.227Z,9.64
2023-04-20T09:01:42.334Z,9.60
2023-04-20T09:02:42.492Z,9.71
2023-04-20T09:03:42.496Z,9.71
2023-04-20T09:04:42.439Z,9.62
2023-04-20T09:05:42.557Z,9.53
2023-04-20T09:06:42.384Z,9.37
2023-04-20T09:07:42.406Z,9.26
2023-04-20T09:08:42.433Z,9.26
2023-04-20T09:09:42.466Z,9.21
2023-04-20T09:10:42.542Z,9.32
2023-04-20T09:11:42.512Z,9.44
2023-04-20T09:12:42.544Z,9.41
2023-04-20T09:13:42.567Z,9.26
2023-04-20T09:14:42.605Z,9.30
2023-04-20T09:15:42.617Z,9.05
2023-04-20T09:16:42.735Z,8.89
2023-04-20T09:17:42.693Z,8.87
2023-04-20T09:18:42.701Z,8.76
2023-04-20T09:19:42.719Z,8.79
2023-04-20T09:20:42.751Z,8.69
2023-04-20T09:21:42.788Z,8.76
2023-04-20T09:22:42.795Z,8.80
2023-04-20T09:23:42.822Z,8.89
2023-04-20T09:24:42.846Z,8.95
2023-04-20T09:25:42.872Z,9.42
2023-04-20T09:26:42.899Z,10.31
2023-04-20T09:27:42.927Z,10.69
2023-04-20T09:28:42.965Z,10.83
2023-04-20T09:29:42.979Z,10.47
2023-04-20T09:30:43.003Z,10.17
2023-04-20T09:31:43.057Z,9.72
2023-04-20T09:32:43.127Z,9.64
2023-04-20T09:33:43.083Z,9.63
2023-04-20T09:34:43.109Z,9.57
2023-04-20T09:35:43.127Z,9.59
2023-04-20T09:36:43.157Z,9.48
2023-04-20T09:37:43.249Z,9.50
2023-04-20T09:38:43.214Z,9.37
2023-04-20T09:39:43.239Z,9.48
2023-04-20T09:40:43.260Z,9.50
2023-04-20T09:41:43.303Z,9.52
2023-04-20T09:42:43.314Z,9.59
2023-04-20T09:43:43.342Z,9.63
2023-04-20T09:44:43.371Z,9.56
2023-04-20T09:45:43.512Z,9.38
2023-04-20T09:46:43.437Z,9.12
2023-04-20T09:47:43.471Z,9.08
2023-04-20T09:48:43.492Z,9.08
2023-04-20T09:49:43.501Z,8.98
2023-04-20T09:50:49.813Z,9.11
2023-04-20T09:51:43.550Z,9.16
2023-04-20T09:52:43.574Z,9.19
2023-04-20T09:53:43.636Z,9.26
2023-04-20T09:54:43.633Z,9.34
2023-04-20T09:55:43.654Z,9.48
2023-04-20T09:56:43.681Z,9.64
2023-04-20T09:57:43.706Z,9.74
2023-04-20T09:58:43.742Z,9.88
2023-04-20T09:59:43.779Z,10.11
2023-04-20T10:00:43.780Z,10.07
2023-04-20T10:01:44.054Z,10.23
2023-04-20T10:02:43.923Z,10.36
2023-04-20T10:03:44.000Z,10.36
2023-04-20T10:04:43.943Z,10.36
2023-04-20T10:05:43.916Z,10.35
2023-04-20T10:06:43.943Z,10.36
2023-04-20T10:07:43.974Z,10.52
2023-04-20T10:08:43.997Z,10.61
2023-04-20T10:09:44.054Z,10.75
2023-04-20T10:10:44.050Z,10.52
2023-04-20T10:11:53.220Z,10.46
2023-04-20T10:12:44.100Z,10.51
2023-04-20T10:13:44.135Z,10.44
2023-04-20T10:14:44.154Z,10.46
2023-04-20T10:15:44.190Z,10.32
2023-04-20T10:16:44.239Z,10.36
2023-04-20T10:17:44.340Z,10.36
2023-04-20T10:18:44.331Z,10.39
2023-04-20T10:19:44.297Z,10.42
2023-04-20T10:20:44.318Z,10.46
2023-04-20T10:21:44.342Z,10.54
2023-04-20T10:22:44.366Z,10.58
2023-04-20T10:23:44.395Z,10.59
2023-04-20T10:24:44.422Z,10.59
2023-04-20T10:25:44.540Z,10.67
2023-04-20T10:26:44.473Z,10.83
2023-04-20T10:27:44.506Z,11.16
2023-04-20T10:28:44.528Z,11.28
2023-04-20T10:29:44.556Z,11.52
2023-04-20T10:30:44.618Z,11.79
2023-04-20T10:31:44.611Z,11.70
2023-04-20T10:32:44.671Z,11.73
2023-04-20T10:33:44.659Z,11.79
2023-04-20T10:34:44.695Z,11.76
2023-04-20T10:35:45.892Z,11.84
2023-04-20T10:36:44.766Z,11.85
2023-04-20T10:37:44.772Z,12.05
2023-04-20T10:38:44.797Z,12.16
2023-04-20T10:39:44.974Z,12.13
2023-04-20T10:40:44.850Z,12.07
2023-04-20T10:41:44.944Z,12.05
2023-04-20T10:42:45.011Z,12.03
2023-04-20T10:43:44.958Z,12.04
2023-04-20T10:44:44.967Z,12.01
2023-04-20T10:45:44.989Z,11.89
2023-04-20T10:46:45.080Z,11.98
2023-04-20T10:47:45.139Z,11.88
2023-04-20T10:48:45.076Z,11.73
2023-04-20T10:49:45.100Z,11.66
2023-04-20T10:50:45.128Z,11.41
2023-04-20T10:51:45.153Z,11.28
2023-04-20T10:52:45.193Z,11.03
2023-04-20T10:53:45.227Z,10.90
2023-04-20T10:54:45.240Z,10.91
2023-04-20T10:55:45.274Z,11.16
2023-04-20T10:56:45.299Z,11.41
2023-04-20T10:57:45.345Z,11.38
2023-04-20T10:58:45.347Z,11.57
2023-04-20T10:59:45.381Z,11.60
2023-04-20T11:00:45.399Z,11.66
2023-04-20T11:01:45.500Z,11.71
2023-04-20T11:02:45.514Z,11.73
2023-04-20T11:03:45.639Z,11.75
2023-04-20T11:04:45.557Z,11.85
2023-04-20T11:05:45.542Z,11.82
2023-04-20T11:06:45.590Z,11.76
2023-04-20T11:07:45.600Z,11.75
2023-04-20T11:08:45.619Z,11.89
2023-04-20T11:09:45.672Z,12.05
2023-04-20T11:10:45.675Z,12.07
2023-04-20T11:11:45.705Z,12.03
2023-04-20T11:12:45.731Z,12.13
2023-04-20T11:13:45.780Z,12.25
2023-04-20T11:14:45.788Z,12.29
2023-04-20T11:15:45.813Z,12.51
2023-04-20T11:16:51.611Z,12.69
2023-04-20T11:17:45.897Z,12.73
2023-04-20T11:18:45.896Z,12.47
2023-04-20T11:19:45.941Z,12.10
2023-04-20T11:20:45.950Z,11.86
2023-04-20T11:21:45.979Z,11.84
2023-04-20T11:22:46.007Z,11.89
2023-04-20T11:23:46.033Z,11.63
2023-04-20T11:24:46.064Z,11.35
2023-04-20T11:25:46.097Z,11.45
2023-04-20T11:26:46.138Z,11.48
2023-04-20T11:27:46.142Z,11.38
2023-04-20T11:28:46.172Z,11.41
2023-04-20T11:29:46.226Z,11.26
2023-04-20T11:30:46.231Z,11.34
2023-04-20T11:31:46.354Z,11.38
2023-04-20T11:32:46.415Z,11.49
2023-04-20T11:33:46.359Z,11.63
2023-04-20T11:34:50.292Z,11.63
2023-04-20T11:35:46.362Z,11.67
2023-04-20T11:36:46.392Z,11.73
2023-04-20T11:37:46.428Z,11.76
2023-04-20T11:38:46.446Z,11.66
2023-04-20T11:39:46.472Z,11.68
2023-04-20T11:40:46.750Z,11.94
2023-04-20T11:41:46.544Z,12.15
2023-04-20T11:42:46.599Z,12.31
2023-04-20T11:43:46.579Z,12.41
2023-04-20T11:44:46.609Z,12.52
2023-04-20T11:45:46.716Z,12.59
2023-04-20T11:46:46.665Z,12.70
2023-04-20T11:47:46.760Z,12.66
2023-04-20T11:48:46.721Z,12.91
2023-04-20T11:49:46.747Z,13.07
2023-04-20T11:50:46.774Z,13.10
2023-04-20T11:51:46.813Z,13.01
2023-04-20T11:52:46.830Z,12.96
2023-04-20T11:53:46.861Z,12.84
2023-04-20T11:54:46.886Z,12.89
2023-04-20T11:55:46.910Z,12.86
2023-04-20T11:56:46.940Z,12.78
2023-04-20T11:57:46.967Z,12.88
2023-04-20T11:58:47.003Z,13.02
2023-04-20T11:59:47.019Z,13.07
2023-04-20T12:00:47.064Z,12.96
2023-04-20T12:01:47.321Z,12.70
2023-04-20T12:02:47.211Z,12.74
2023-04-20T12:03:48.012Z,12.56
2023-04-20T12:04:47.281Z,12.41
2023-04-20T12:05:47.395Z,12.23
2023-04-20T12:06:47.241Z,12.19
2023-04-20T12:07:47.244Z,12.13
2023-04-20T12:08:47.273Z,12.03
2023-04-20T12:09:47.302Z,12.15
2023-04-20T12:10:47.334Z,12.20
2023-04-20T12:11:47.357Z,12.13
2023-04-20T12:12:47.387Z,12.34
2023-04-20T12:13:47.411Z,12.47
2023-04-20T12:14:47.446Z,12.61
2023-04-20T12:15:47.509Z,12.66
2023-04-20T12:16:47.505Z,12.80
2023-04-20T12:17:47.624Z,12.71
2023-04-20T12:18:47.552Z,12.73
2023-04-20T12:19:47.577Z,12.92
2023-04-20T12:20:47.630Z,12.88
2023-04-20T12:21:47.643Z,12.73
2023-04-20T12:22:47.664Z,12.71
2023-04-20T12:23:47.689Z,12.58
2023-04-20T12:24:47.725Z,12.62
2023-04-20T12:25:47.749Z,12.55
2023-04-20T12:26:47.774Z,12.56
2023-04-20T12:27:49.844Z,12.43
2023-04-20T12:28:47.829Z,12.36
2023-04-20T12:29:47.858Z,12.41
2023-04-20T12:30:47.884Z,12.36
2023-04-20T12:31:47.933Z,12.58
2023-04-20T12:32:47.983Z,12.55
2023-04-20T12:33:47.995Z,12.63
2023-04-20T12:34:47.997Z,12.71
2023-04-20T12:35:48.022Z,12.74
2023-04-20T12:36:48.051Z,12.76
2023-04-20T12:37:48.081Z,12.77
2023-04-20T12:38:48.109Z,12.99
2023-04-20T12:39:48.148Z,12.80
2023-04-20T12:40:48.162Z,12.92
2023-04-20T12:41:48.192Z,12.71
2023-04-20T12:42:48.215Z,12.73
2023-04-20T12:43:48.247Z,12.69
2023-04-20T12:44:48.272Z,12.70
2023-04-20T12:45:48.303Z,12.73
2023-04-20T12:46:48.362Z,12.77
2023-04-20T12:47:48.385Z,12.88
2023-04-20T12:48:48.402Z,12.94
2023-04-20T12:49:48.513Z,13.21
2023-04-20T12:50:48.449Z,13.37
2023-04-20T12:51:48.462Z,13.50
2023-04-20T12:52:48.495Z,13.37
2023-04-20T12:53:48.521Z,13.57
2023-04-20T12:54:48.555Z,13.62
2023-04-20T12:55:54.999Z,13.47
2023-04-20T12:56:48.606Z,13.37
2023-04-20T12:57:48.650Z,13.55
2023-04-20T12:58:48.665Z,13.81
2023-04-20T12:59:48.708Z,13.93
2023-04-20T13:00:48.725Z,14.05
2023-04-20T13:01:48.857Z,13.93
2023-04-20T13:02:48.807Z,13.94
2023-04-20T13:03:48.947Z,14.16
2023-04-20T13:04:48.833Z,14.13
2023-04-20T13:05:48.900Z,14.06
2023-04-20T13:06:48.885Z,14.05
2023-04-20T13:07:48.916Z,13.75
2023-04-20T13:08:48.937Z,13.60
2023-04-20T13:09:48.966Z,13.50
2023-04-20T13:10:48.996Z,13.40
2023-04-20T13:11:49.029Z,13.21